createdAt,value
2019-06-20T00:07:43.328Z,25.50
2019-06-20T00:16:44.773Z,25.50
2019-06-20T00:25:46.284Z,25.50
2019-06-20T00:34:47.778Z,25.40
2019-06-20T00:43:49.219Z,25.30
2019-06-20T00:52:50.707Z,25.30
2019-06-20T01:01:52.153Z,25.20
2019-06-20T01:10:53.613Z,25.20
2019-06-20T01:19:58.150Z,25.10
2019-06-20T01:28:58.498Z,25.00
2019-06-20T01:38:00.876Z,24.90
2019-06-20T01:47:02.515Z,25.00
2019-06-20T01:56:04.168Z,25.00
2019-06-20T02:05:05.721Z,25.00
2019-06-20T02:14:07.724Z,24.90
2019-06-20T02:23:09.424Z,24.80
2019-06-20T02:32:11.014Z,24.80
2019-06-20T02:41:12.459Z,24.60
2019-06-20T02:50:13.929Z,24.60
2019-06-20T02:59:15.392Z,24.40
2019-06-20T03:08:16.875Z,24.30
2019-06-20T03:17:18.319Z,24.20
2019-06-20T03:26:19.805Z,24.10
2019-06-20T03:35:21.285Z,24.00
2019-06-20T03:44:22.758Z,23.90
2019-06-20T03:53:24.229Z,23.90
2019-06-20T04:02:25.694Z,23.80
2019-06-20T04:11:28.267Z,23.80
2019-06-20T04:20:29.689Z,23.70
2019-06-20T04:29:31.135Z,23.70
2019-06-20T04:38:32.623Z,23.60
2019-06-20T04:47:34.062Z,23.60
2019-06-20T04:56:35.737Z,23.60
2019-06-20T05:05:37.182Z,23.70
2019-06-20T05:14:38.636Z,23.80
2019-06-20T05:23:40.077Z,23.80
2019-06-20T05:32:41.562Z,23.90
2019-06-20T05:41:43.048Z,23.90
2019-06-20T05:50:44.546Z,23.80
2019-06-20T05:59:46.063Z,23.80
2019-06-20T06:08:47.538Z,23.80
2019-06-20T06:17:49.088Z,23.80
2019-06-20T06:26:50.649Z,23.80
2019-06-20T06:35:52.168Z,23.90
2019-06-20T06:44:53.615Z,23.90
2019-06-20T06:53:55.196Z,23.90
2019-06-20T07:02:56.698Z,23.90
2019-06-20T07:12:01.151Z,23.90
2019-06-20T07:21:02.716Z,24.00
2019-06-20T07:30:05.363Z,24.00
2019-06-20T07:39:07.982Z,24.20
2019-06-20T07:48:09.443Z,24.20
2019-06-20T07:57:11.032Z,24.30
2019-06-20T08:06:12.533Z,24.40
2019-06-20T08:15:15.854Z,24.50
2019-06-20T08:24:18.599Z,24.60
2019-06-20T08:33:20.088Z,24.70
2019-06-20T08:42:21.603Z,24.70
2019-06-20T08:51:23.065Z,24.70
2019-06-20T09:00:24.763Z,24.80
2019-06-20T09:09:26.392Z,24.90
2019-06-20T09:18:27.923Z,24.90
2019-06-20T09:27:29.525Z,25.00
2019-06-20T09:36:30.992Z,25.00
2019-06-20T09:45:32.531Z,25.20
2019-06-20T09:54:34.038Z,25.50
2019-06-20T10:03:35.507Z,25.70
2019-06-20T10:12:37.324Z,26.00
2019-06-20T10:21:39.093Z,26.10
2019-06-20T10:30:40.622Z,26.20
2019-06-20T10:39:44.503Z,26.40
2019-06-20T10:48:45.991Z,26.60
2019-06-20T10:57:49.632Z,26.70
2019-06-20T11:06:51.209Z,26.60
2019-06-20T11:15:52.672Z,26.60
2019-06-20T11:24:54.154Z,26.50
2019-06-20T11:33:55.691Z,26.60
2019-06-20T11:42:57.753Z,26.60
2019-06-20T11:51:59.390Z,26.90
2019-06-20T12:01:03.935Z,27.10
2019-06-20T12:10:05.187Z,27.30
2019-06-20T12:19:06.829Z,27.50
2019-06-20T12:28:08.465Z,27.70
2019-06-20T12:37:10.007Z,27.80
2019-06-20T12:46:11.573Z,27.80
2019-06-20T12:55:13.122Z,27.70
2019-06-20T13:04:14.770Z,27.80
2019-06-20T13:13:16.271Z,28.00
2019-06-20T13:22:17.797Z,28.00
2019-06-20T13:31:19.352Z,27.80
2019-06-20T13:40:21.167Z,27.70
2019-06-20T13:49:22.889Z,27.60
2019-06-20T13:58:24.459Z,27.60
2019-06-20T14:07:27.108Z,27.70
2019-06-20T14:16:28.641Z,28.00
2019-06-20T14:25:30.223Z,28.30
2019-06-20T14:34:31.798Z,28.30
2019-06-20T14:43:33.511Z,28.20
2019-06-20T14:52:35.122Z,28.10
2019-06-20T15:01:36.615Z,27.80
2019-06-20T15:10:38.179Z,27.50
2019-06-20T15:19:39.732Z,27.20
2019-06-20T15:28:41.304Z,27.00
2019-06-20T15:37:42.875Z,26.80
2019-06-20T15:46:44.956Z,26.60
2019-06-20T15:55:46.720Z,26.50
2019-06-20T16:04:48.209Z,26.40
2019-06-20T16:13:50.322Z,26.30
2019-06-20T16:22:52.221Z,26.20
2019-06-20T16:31:53.799Z,26.10
2019-06-20T16:40:55.611Z,26.10
2019-06-20T16:49:57.470Z,26.00
2019-06-20T16:58:59.392Z,26.00
2019-06-20T17:08:01.335Z,26.00
2019-06-20T17:17:03.100Z,25.90
2019-06-20T17:26:05.270Z,25.80
2019-06-20T17:35:06.993Z,25.70
2019-06-20T17:44:08.902Z,25.80
2019-06-20T17:53:10.738Z,26.00
2019-06-20T18:02:12.538Z,26.80
2019-06-20T18:11:15.268Z,27.00
2019-06-20T18:20:17.110Z,26.70
2019-06-20T18:29:18.909Z,26.40
2019-06-20T18:38:20.869Z,26.10
2019-06-20T18:47:22.895Z,25.80
2019-06-20T18:56:24.989Z,25.60
2019-06-20T19:05:26.931Z,25.40
2019-06-20T19:14:33.039Z,25.30
2019-06-20T19:23:35.453Z,25.20
2019-06-20T19:32:37.724Z,25.10
2019-06-20T19:41:39.765Z,25.00
2019-06-20T19:50:41.962Z,24.80
2019-06-20T19:59:46.139Z,24.60
2019-06-20T20:08:48.263Z,24.40
2019-06-20T20:17:51.553Z,24.30
2019-06-20T20:26:53.519Z,24.20
2019-06-20T20:35:55.813Z,24.20
2019-06-20T20:44:57.412Z,24.10
2019-06-20T20:53:59.544Z,24.00
2019-06-20T21:03:01.422Z,23.90
2019-06-20T21:12:03.114Z,23.90
2019-06-20T21:21:04.794Z,23.80
2019-06-20T21:30:09.622Z,23.80
2019-06-20T21:39:11.320Z,23.80
2019-06-20T21:48:13.170Z,23.80
2019-06-20T21:57:14.802Z,23.70
2019-06-20T22:06:23.666Z,23.70
2019-06-20T22:15:19.706Z,23.80
2019-06-20T22:24:21.499Z,23.80
2019-06-20T22:33:22.995Z,23.80
2019-06-20T22:42:24.522Z,23.80
2019-06-20T22:51:26.026Z,23.80
2019-06-20T23:00:27.523Z,23.70
2019-06-20T23:09:29.022Z,23.60
2019-06-20T23:18:30.549Z,23.60
2019-06-20T23:27:32.072Z,23.60
2019-06-20T23:36:33.565Z,23.50
2019-06-20T23:45:35.038Z,23.40
2019-06-20T23:54:36.606Z,23.20
